Time;durP1;ratioP1;P1;durP2;ratioP2;P2;SDS_P1;SDS_P2;PMS_P1;PMS_P2;Temp;Humidity;BMP_temperature;BMP_pressure;BME280_temperature;BME280_humidity;BME280_pressure;Samples;Min_cycle;Max_cycle;Signal;HPM_P1;HPM_P2
2023/10/31 00:01:36;;;;;;;;;;;11.50;99.90;;;;;;5113495;28;19928;-33
2023/10/31 00:04:03;;;;;;;;;;;11.50;99.90;;;;;;5095594;28;19927;-34
2023/10/31 00:06:31;;;;;;;;;;;11.50;99.90;;;;;;5094897;28;19924;-33
2023/10/31 00:08:58;;;;;;;;;;;11.50;99.90;;;;;;5096598;28;19924;-33
2023/10/31 00:11:24;;;;;;;;;;;11.50;99.90;;;;;;5114551;28;19924;-34
2023/10/31 00:13:51;;;;;;;;;;;11.50;99.90;;;;;;5096087;28;19924;-35
2023/10/31 00:16:17;;;;;;;;;;;11.50;99.90;;;;;;5095680;28;20383;-34
2023/10/31 00:18:44;;;;;;;;;;;11.50;99.90;;;;;;5113913;28;20020;-34
2023/10/31 00:21:11;;;;;;;;;;;11.50;99.90;;;;;;5094716;28;19973;-35
2023/10/31 00:23:44;;;;;;;;;;;11.50;99.90;;;;;;5096279;28;19924;-34
2023/10/31 00:26:11;;;;;;;;;;;11.50;99.90;;;;;;5114418;28;19930;-35
2023/10/31 00:28:38;;;;;;;;;;;11.50;99.90;;;;;;5096082;28;20436;-36
2023/10/31 00:31:05;;;;;;;;;;;11.40;99.90;;;;;;5112939;28;19959;-34
2023/10/31 00:33:31;;;;;;;;;;;11.40;99.90;;;;;;5113116;28;19970;-33
2023/10/31 00:35:58;;;;;;;;;;;11.40;99.90;;;;;;5089236;27;19973;-33
2023/10/31 00:38:25;;;;;;;;;;;11.40;99.90;;;;;;5114645;28;19992;-34
2023/10/31 00:40:53;;;;;;;;;;;11.40;99.90;;;;;;5112443;28;20547;-33
2023/10/31 00:43:19;;;;;;;;;;;11.30;99.90;;;;;;5094980;28;19924;-34
2023/10/31 00:45:46;;;;;;;;;;;11.30;99.90;;;;;;5095193;28;19932;-33
2023/10/31 00:48:12;;;;;;;;;;;11.30;99.90;;;;;;5113177;28;19923;-34
2023/10/31 00:50:39;;;;;;;;;;;11.30;99.90;;;;;;5113374;28;19929;-34
2023/10/31 00:53:08;;;;;;;;;;;11.30;99.90;;;;;;5094703;28;20243;-34
2023/10/31 00:55:34;;;;;;;;;;;11.30;99.90;;;;;;5095453;28;19971;-34
2023/10/31 00:58:02;;;;;;;;;;;11.20;99.90;;;;;;5113076;28;20012;-33
2023/10/31 01:00:29;;;;;;;;;;;11.20;99.90;;;;;;5094372;28;19938;-34
2023/10/31 01:02:56;;;;;;;;;;;11.20;99.90;;;;;;5093964;28;19985;-33
2023/10/31 01:05:22;;;;;;;;;;;11.10;99.90;;;;;;5110783;28;19924;-33
2023/10/31 01:07:49;;;;;;;;;;;11.10;99.90;;;;;;5093698;28;20405;-34
2023/10/31 01:10:19;;;;;;;;;;;11.00;99.90;;;;;;5112156;28;20431;-33
2023/10/31 01:12:45;;;;;;;;;;;11.00;99.90;;;;;;5094468;28;20595;-34
2023/10/31 01:15:13;;;;;;;;;;;11.00;99.90;;;;;;5093488;28;19932;-35
2023/10/31 01:17:40;;;;;;;;;;;10.90;99.90;;;;;;5112385;28;19927;-35
2023/10/31 01:20:07;;;;;;;;;;;10.90;99.90;;;;;;5095601;28;19927;-32
2023/10/31 01:22:34;;;;;;;;;;;10.90;99.90;;;;;;5111393;28;20044;-34
2023/10/31 01:25:00;;;;;;;;;;;10.80;99.90;;;;;;5112140;28;19927;-34
2023/10/31 01:27:27;;;;;;;;;;;10.80;99.90;;;;;;5112916;28;20006;-33
2023/10/31 01:29:54;;;;;;;;;;;10.70;99.90;;;;;;5112629;28;20002;-33
2023/10/31 01:32:22;;;;;;;;;;;10.70;99.90;;;;;;5112096;28;19928;-32
2023/10/31 01:34:48;;;;;;;;;;;10.70;99.90;;;;;;5088994;28;19971;-32
2023/10/31 01:37:15;;;;;;;;;;;10.70;99.90;;;;;;5091577;28;19923;-33
2023/10/31 01:39:42;;;;;;;;;;;10.60;99.90;;;;;;5093801;28;19930;-33
2023/10/31 01:42:08;;;;;;;;;;;10.50;99.90;;;;;;5094326;28;19927;-33
2023/10/31 01:44:35;;;;;;;;;;;10.50;99.90;;;;;;5093839;28;19930;-32
2023/10/31 01:47:01;;;;;;;;;;;10.50;99.90;;;;;;5095199;28;19924;-32
2023/10/31 01:49:30;;;;;;;;;;;10.50;99.90;;;;;;5111479;28;20047;-33
2023/10/31 01:51:56;;;;;;;;;;;10.40;99.90;;;;;;5094335;28;19950;-33
2023/10/31 01:54:23;;;;;;;;;;;10.50;99.90;;;;;;5094182;28;19969;-33
2023/10/31 01:56:53;;;;;;;;;;;10.40;99.90;;;;;;5112347;28;19928;-33
2023/10/31 01:59:20;;;;;;;;;;;10.40;99.90;;;;;;5112790;28;20098;-34
2023/10/31 02:01:46;;;;;;;;;;;10.40;99.90;;;;;;5093804;28;20460;-32
2023/10/31 02:04:13;;;;;;;;;;;10.40;99.90;;;;;;5093846;28;19967;-33
2023/10/31 02:06:41;;;;;;;;;;;10.40;99.90;;;;;;5093545;28;19980;-32
2023/10/31 02:09:08;;;;;;;;;;;10.40;99.90;;;;;;5109390;28;19923;-34
2023/10/31 02:11:34;;;;;;;;;;;10.40;99.90;;;;;;5095155;28;19924;-34
2023/10/31 02:14:01;;;;;;;;;;;10.40;99.90;;;;;;5093534;28;19928;-33
2023/10/31 02:16:28;;;;;;;;;;;10.30;99.90;;;;;;5111845;28;19927;-33
2023/10/31 02:18:54;;;;;;;;;;;10.30;99.90;;;;;;5092946;28;19963;-33
2023/10/31 02:21:21;;;;;;;;;;;10.30;99.90;;;;;;5094525;28;19988;-33
2023/10/31 02:23:57;;;;;;;;;;;10.30;99.90;;;;;;5111111;28;19924;-33
2023/10/31 02:26:24;;;;;;;;;;;10.30;99.90;;;;;;5110490;28;19928;-34
2023/10/31 02:28:50;;;;;;;;;;;10.30;99.90;;;;;;5110510;28;19968;-33
2023/10/31 02:31:17;;;;;;;;;;;10.30;99.90;;;;;;5111077;28;19970;-32
2023/10/31 02:33:44;;;;;;;;;;;10.30;99.90;;;;;;5111583;28;20480;-32
2023/10/31 02:36:10;;;;;;;;;;;10.30;99.90;;;;;;5110534;28;20282;-33
2023/10/31 02:38:37;;;;;;;;;;;10.20;99.90;;;;;;5111230;28;19949;-33
2023/10/31 02:41:05;;;;;;;;;;;10.20;99.90;;;;;;5093004;28;19970;-32
2023/10/31 02:43:32;;;;;;;;;;;10.20;99.90;;;;;;5091987;28;20415;-33
2023/10/31 02:45:58;;;;;;;;;;;10.20;99.90;;;;;;5109282;28;19924;-33
2023/10/31 02:48:25;;;;;;;;;;;10.20;99.90;;;;;;5110994;28;19928;-33
2023/10/31 02:50:52;;;;;;;;;;;10.20;99.90;;;;;;5093261;28;20043;-33
2023/10/31 02:53:19;;;;;;;;;;;10.20;99.90;;;;;;5111875;28;20345;-33
2023/10/31 02:55:45;;;;;;;;;;;10.20;99.90;;;;;;5111971;28;19931;-33
2023/10/31 02:58:13;;;;;;;;;;;10.20;99.90;;;;;;5112206;27;19969;-33
2023/10/31 03:00:40;;;;;;;;;;;10.20;99.90;;;;;;5114689;28;19923;-33
2023/10/31 03:03:06;;;;;;;;;;;10.20;99.90;;;;;;5095757;28;19976;-32
2023/10/31 03:05:33;;;;;;;;;;;10.30;99.90;;;;;;5091913;28;19977;-31
2023/10/31 03:08:00;;;;;;;;;;;10.20;99.90;;;;;;5115824;28;19923;-32
2023/10/31 03:10:27;;;;;;;;;;;10.20;99.90;;;;;;5097682;28;20353;-31
2023/10/31 03:12:53;;;;;;;;;;;10.30;99.90;;;;;;5097230;28;19985;-32
2023/10/31 03:15:22;;;;;;;;;;;10.20;99.90;;;;;;5114398;28;20585;-32
2023/10/31 03:17:48;;;;;;;;;;;10.30;99.90;;;;;;5096977;28;19924;-32
2023/10/31 03:20:15;;;;;;;;;;;10.30;99.90;;;;;;5115469;28;19928;-32
2023/10/31 03:22:42;;;;;;;;;;;10.30;99.90;;;;;;5097389;28;19969;-33
2023/10/31 03:25:08;;;;;;;;;;;10.30;99.90;;;;;;5114888;28;19924;-32
2023/10/31 03:27:35;;;;;;;;;;;10.20;99.90;;;;;;5115860;28;19949;-32
2023/10/31 03:30:02;;;;;;;;;;;10.30;99.90;;;;;;5097998;28;19923;-33
2023/10/31 03:32:30;;;;;;;;;;;10.20;99.90;;;;;;5097673;28;19924;-33
2023/10/31 03:34:56;;;;;;;;;;;10.20;99.90;;;;;;5097514;28;20174;-31
2023/10/31 03:37:23;;;;;;;;;;;10.20;99.90;;;;;;5096161;28;20028;-32
2023/10/31 03:39:50;;;;;;;;;;;10.30;99.90;;;;;;5116047;28;20304;-32
2023/10/31 03:42:16;;;;;;;;;;;10.30;99.90;;;;;;5116062;28;20333;-34
2023/10/31 03:44:43;;;;;;;;;;;10.30;99.90;;;;;;5095643;28;19930;-32
2023/10/31 03:47:10;;;;;;;;;;;10.30;99.90;;;;;;5095046;28;19989;-32
2023/10/31 03:49:40;;;;;;;;;;;10.30;99.90;;;;;;5095843;28;19980;-33
2023/10/31 03:52:06;;;;;;;;;;;10.30;99.90;;;;;;5096542;28;19980;-32
2023/10/31 03:54:33;;;;;;;;;;;10.30;99.90;;;;;;5095869;28;19930;-33
2023/10/31 03:57:00;;;;;;;;;;;10.30;99.90;;;;;;5097189;28;19924;-33
2023/10/31 03:59:26;;;;;;;;;;;10.30;99.90;;;;;;5096664;28;19967;-33
2023/10/31 04:01:53;;;;;;;;;;;10.30;99.90;;;;;;5095831;28;19924;-32
2023/10/31 04:04:20;;;;;;;;;;;10.30;99.90;;;;;;5094628;28;19924;-32
2023/10/31 04:06:48;;;;;;;;;;;10.30;99.90;;;;;;5094592;28;19973;-32
2023/10/31 04:09:14;;;;;;;;;;;10.40;99.90;;;;;;5096051;28;19984;-32
2023/10/31 04:11:43;;;;;;;;;;;10.40;99.90;;;;;;5096938;28;19931;-33
2023/10/31 04:14:09;;;;;;;;;;;10.40;99.90;;;;;;5114241;28;19923;-33
2023/10/31 04:16:39;;;;;;;;;;;10.40;99.90;;;;;;5113520;28;19977;-32
2023/10/31 04:19:06;;;;;;;;;;;10.40;99.90;;;;;;5114243;28;19977;-33
2023/10/31 04:21:33;;;;;;;;;;;10.40;99.90;;;;;;5114178;28;19971;-32
2023/10/31 04:24:01;;;;;;;;;;;10.40;99.90;;;;;;5114623;28;19977;-33
2023/10/31 04:26:28;;;;;;;;;;;10.40;99.90;;;;;;5095575;28;19927;-33
2023/10/31 04:28:54;;;;;;;;;;;10.40;99.90;;;;;;5113877;28;19927;-33
2023/10/31 04:31:21;;;;;;;;;;;10.30;99.90;;;;;;5113076;28;19923;-32
2023/10/31 04:33:48;;;;;;;;;;;10.30;99.90;;;;;;5095228;28;20445;-32
2023/10/31 04:36:14;;;;;;;;;;;10.40;99.90;;;;;;5096047;28;19923;-33
2023/10/31 04:38:41;;;;;;;;;;;10.40;99.90;;;;;;5102388;28;19927;-32
2023/10/31 04:41:10;;;;;;;;;;;10.40;99.90;;;;;;5086428;28;19927;-33
2023/10/31 04:43:36;;;;;;;;;;;10.40;99.90;;;;;;5093514;28;19928;-33
2023/10/31 04:46:03;;;;;;;;;;;10.40;99.90;;;;;;5113409;28;19924;-33
2023/10/31 04:48:31;;;;;;;;;;;10.40;99.90;;;;;;5085620;28;19924;-32
2023/10/31 04:50:58;;;;;;;;;;;10.40;99.90;;;;;;5074187;28;20396;-32
2023/10/31 04:53:25;;;;;;;;;;;10.40;99.90;;;;;;5075592;28;19924;-32
2023/10/31 04:55:51;;;;;;;;;;;10.40;99.90;;;;;;5073662;28;19978;-33
2023/10/31 04:58:19;;;;;;;;;;;10.40;99.90;;;;;;5074195;28;19978;-33
2023/10/31 05:00:47;;;;;;;;;;;10.30;99.90;;;;;;5090787;28;19982;-32
2023/10/31 05:03:13;;;;;;;;;;;10.40;99.90;;;;;;5071783;28;19924;-32
2023/10/31 05:05:40;;;;;;;;;;;10.40;99.90;;;;;;5073662;28;19924;-33
2023/10/31 05:08:07;;;;;;;;;;;10.40;99.90;;;;;;5073474;28;19928;-33
2023/10/31 05:10:34;;;;;;;;;;;10.40;99.90;;;;;;5073384;28;19924;-32
2023/10/31 05:13:02;;;;;;;;;;;10.30;99.90;;;;;;5081715;28;20372;-32
2023/10/31 05:15:30;;;;;;;;;;;10.30;99.90;;;;;;5089226;28;20388;-33
2023/10/31 05:17:56;;;;;;;;;;;10.30;99.90;;;;;;5072435;28;20334;-33
2023/10/31 05:20:23;;;;;;;;;;;10.30;99.90;;;;;;5074762;28;19986;-35
2023/10/31 05:22:49;;;;;;;;;;;10.30;99.90;;;;;;5073303;28;19950;-34
2023/10/31 05:25:17;;;;;;;;;;;10.30;99.90;;;;;;5073210;28;19974;-32
2023/10/31 05:27:43;;;;;;;;;;;10.30;99.90;;;;;;5092206;28;19924;-33
2023/10/31 05:30:11;;;;;;;;;;;10.30;99.90;;;;;;5104867;28;19981;-32
2023/10/31 05:32:39;;;;;;;;;;;10.30;99.90;;;;;;5077147;28;19931;-32
2023/10/31 05:35:06;;;;;;;;;;;10.30;99.90;;;;;;5090677;28;19928;-33
2023/10/31 05:37:32;;;;;;;;;;;10.30;99.90;;;;;;5087604;28;20437;-32
2023/10/31 05:40:00;;;;;;;;;;;10.30;99.90;;;;;;5074076;28;19924;-32
2023/10/31 05:42:27;;;;;;;;;;;10.30;99.90;;;;;;5074898;28;19967;-34
2023/10/31 05:44:54;;;;;;;;;;;10.30;99.90;;;;;;5074044;28;19929;-32
2023/10/31 05:47:21;;;;;;;;;;;10.30;99.90;;;;;;5070921;28;19924;-33
2023/10/31 05:49:49;;;;;;;;;;;10.30;99.90;;;;;;5085545;28;20038;-32
2023/10/31 05:52:16;;;;;;;;;;;10.30;99.90;;;;;;5094487;28;19928;-32
2023/10/31 05:54:43;;;;;;;;;;;10.30;99.90;;;;;;5113445;28;19969;-32
2023/10/31 05:57:09;;;;;;;;;;;10.30;99.90;;;;;;5112261;28;19927;-33
2023/10/31 05:59:36;;;;;;;;;;;10.30;99.90;;;;;;5089560;28;20038;-33
2023/10/31 06:02:03;;;;;;;;;;;10.30;99.90;;;;;;5092076;28;19928;-32
2023/10/31 06:04:29;;;;;;;;;;;10.30;99.90;;;;;;5088806;28;19977;-33
2023/10/31 06:06:57;;;;;;;;;;;10.30;99.90;;;;;;5107983;28;19932;-32
2023/10/31 06:09:24;;;;;;;;;;;10.30;99.90;;;;;;5103999;28;19923;-33
2023/10/31 06:11:50;;;;;;;;;;;10.30;99.90;;;;;;5089453;28;19924;-34
2023/10/31 06:14:17;;;;;;;;;;;10.30;99.90;;;;;;5106582;27;19924;-33
2023/10/31 06:16:44;;;;;;;;;;;10.20;99.90;;;;;;5089989;28;20347;-32
2023/10/31 06:19:11;;;;;;;;;;;10.30;99.90;;;;;;5092847;28;19924;-33
2023/10/31 06:21:37;;;;;;;;;;;10.20;99.90;;;;;;5110955;28;19924;-33
2023/10/31 06:24:06;;;;;;;;;;;10.30;99.90;;;;;;5093372;28;19946;-32
2023/10/31 06:26:32;;;;;;;;;;;10.30;99.90;;;;;;5111250;28;19975;-33
2023/10/31 06:28:59;;;;;;;;;;;10.30;99.90;;;;;;5110706;28;20412;-34
2023/10/31 06:31:25;;;;;;;;;;;10.20;99.90;;;;;;5091007;28;20372;-34
2023/10/31 06:33:52;;;;;;;;;;;10.30;99.90;;;;;;5090251;28;20013;-33
2023/10/31 06:36:19;;;;;;;;;;;10.30;99.90;;;;;;5022309;22;19924;-31
2023/10/31 06:38:45;;;;;;;;;;;10.30;99.90;;;;;;5083841;28;19932;-33
2023/10/31 06:41:13;;;;;;;;;;;10.30;99.90;;;;;;5068622;28;19971;-34
2023/10/31 06:43:40;;;;;;;;;;;10.30;99.90;;;;;;5087797;28;20399;-32
2023/10/31 06:46:07;;;;;;;;;;;10.30;99.90;;;;;;5071203;28;19985;-31
2023/10/31 06:48:33;;;;;;;;;;;10.30;99.90;;;;;;5071613;28;19977;-33
2023/10/31 06:51:00;;;;;;;;;;;10.30;99.90;;;;;;5076185;28;19950;-34
2023/10/31 06:53:27;;;;;;;;;;;10.40;99.90;;;;;;5087832;28;19927;-33
2023/10/31 06:55:53;;;;;;;;;;;10.30;99.90;;;;;;5070818;28;20027;-35
2023/10/31 06:58:21;;;;;;;;;;;10.30;99.90;;;;;;5072085;28;20212;-33
2023/10/31 07:00:48;;;;;;;;;;;10.40;99.90;;;;;;5070365;28;19982;-35
2023/10/31 07:03:15;;;;;;;;;;;10.40;99.90;;;;;;5088853;28;19927;-32
2023/10/31 07:05:42;;;;;;;;;;;10.30;99.90;;;;;;5061736;28;19939;-32
2023/10/31 07:08:08;;;;;;;;;;;10.40;99.90;;;;;;5089468;28;20013;-32
2023/10/31 07:10:35;;;;;;;;;;;10.40;99.90;;;;;;5089820;28;19931;-32
2023/10/31 07:13:02;;;;;;;;;;;10.40;99.90;;;;;;5070925;28;19989;-31
2023/10/31 07:15:30;;;;;;;;;;;10.40;99.90;;;;;;5072316;28;19928;-32
2023/10/31 07:17:56;;;;;;;;;;;10.40;99.90;;;;;;5070994;28;19932;-33
2023/10/31 07:20:23;;;;;;;;;;;10.40;99.90;;;;;;5071113;28;19929;-34
2023/10/31 07:22:50;;;;;;;;;;;10.50;99.90;;;;;;5088266;28;19927;-33
2023/10/31 07:25:16;;;;;;;;;;;10.50;99.90;;;;;;5089452;28;19925;-34
2023/10/31 07:27:43;;;;;;;;;;;10.50;99.90;;;;;;5072257;28;20394;-32
2023/10/31 07:30:10;;;;;;;;;;;10.50;99.90;;;;;;5089071;28;20449;-35
2023/10/31 07:32:38;;;;;;;;;;;10.60;99.90;;;;;;5089446;28;20048;-33
2023/10/31 07:35:05;;;;;;;;;;;10.60;99.90;;;;;;5085103;28;20287;-32
2023/10/31 07:37:32;;;;;;;;;;;10.60;99.90;;;;;;5086346;28;20315;-31
2023/10/31 07:39:59;;;;;;;;;;;10.60;99.90;;;;;;5070629;28;19970;-31
2023/10/31 07:42:26;;;;;;;;;;;10.70;99.90;;;;;;5088669;28;19928;-33
2023/10/31 07:44:52;;;;;;;;;;;10.70;99.90;;;;;;5073120;28;19928;-33
2023/10/31 07:47:19;;;;;;;;;;;10.70;99.90;;;;;;5092927;28;19928;-33
2023/10/31 07:49:48;;;;;;;;;;;10.80;99.90;;;;;;5092870;28;19924;-32
2023/10/31 07:52:14;;;;;;;;;;;10.80;99.90;;;;;;5093519;28;20384;-32
2023/10/31 07:54:41;;;;;;;;;;;10.80;99.90;;;;;;5073530;28;19924;-33
2023/10/31 07:57:07;;;;;;;;;;;10.90;99.90;;;;;;5075461;28;19924;-33
2023/10/31 07:59:34;;;;;;;;;;;10.90;99.90;;;;;;5092751;28;19924;-34
2023/10/31 08:02:01;;;;;;;;;;;10.90;99.90;;;;;;5075768;28;19928;-32
2023/10/31 08:04:29;;;;;;;;;;;11.00;99.90;;;;;;5084582;28;20293;-33
2023/10/31 08:06:57;;;;;;;;;;;11.00;99.90;;;;;;5073275;28;20403;-32
2023/10/31 08:09:24;;;;;;;;;;;11.00;99.90;;;;;;5061548;28;20347;-32
2023/10/31 08:11:50;;;;;;;;;;;11.00;99.90;;;;;;5073471;28;20276;-32
2023/10/31 08:14:17;;;;;;;;;;;11.00;99.90;;;;;;5089514;28;20421;-33
2023/10/31 08:16:43;;;;;;;;;;;11.10;99.90;;;;;;5064808;28;19929;-33
2023/10/31 08:19:10;;;;;;;;;;;11.10;99.90;;;;;;5086317;28;19950;-33
2023/10/31 08:21:38;;;;;;;;;;;11.20;99.90;;;;;;5075173;28;19943;-34
2023/10/31 08:24:06;;;;;;;;;;;11.20;99.90;;;;;;5073997;28;20007;-33
2023/10/31 08:26:34;;;;;;;;;;;11.20;99.90;;;;;;5074345;28;19928;-33
2023/10/31 08:29:00;;;;;;;;;;;11.30;99.90;;;;;;5074599;28;19932;-33
2023/10/31 08:31:27;;;;;;;;;;;11.30;99.90;;;;;;5075188;28;20209;-35
2023/10/31 08:33:53;;;;;;;;;;;11.30;99.90;;;;;;5093029;28;20434;-32
2023/10/31 08:36:20;;;;;;;;;;;11.30;99.90;;;;;;5091992;28;19932;-32
2023/10/31 08:38:47;;;;;;;;;;;11.40;99.90;;;;;;5092059;28;19924;-33
2023/10/31 08:41:19;;;;;;;;;;;11.40;99.90;;;;;;5089473;28;19924;-34
2023/10/31 08:43:46;;;;;;;;;;;11.40;99.90;;;;;;5093082;28;20443;-33
2023/10/31 08:46:13;;;;;;;;;;;11.50;99.90;;;;;;5089856;28;19930;-34
2023/10/31 08:48:40;;;;;;;;;;;11.50;99.90;;;;;;5092611;28;19924;-34
2023/10/31 08:51:06;;;;;;;;;;;11.50;99.90;;;;;;5092724;28;19928;-34
2023/10/31 08:53:33;;;;;;;;;;;11.50;99.90;;;;;;5092385;28;19924;-33
2023/10/31 08:55:59;;;;;;;;;;;11.60;99.90;;;;;;5072582;28;20427;-33
2023/10/31 08:58:28;;;;;;;;;;;11.60;99.90;;;;;;5091827;28;19955;-34
2023/10/31 09:00:55;;;;;;;;;;;11.70;99.90;;;;;;5073845;28;19924;-34
2023/10/31 09:03:21;;;;;;;;;;;11.70;99.90;;;;;;5092667;28;19924;-33
2023/10/31 09:05:48;;;;;;;;;;;11.70;99.90;;;;;;5073683;28;19973;-35
2023/10/31 09:08:14;;;;;;;;;;;11.70;99.90;;;;;;5092285;28;19985;-33
2023/10/31 09:10:42;;;;;;;;;;;11.70;99.90;;;;;;5082962;28;20443;-32
2023/10/31 09:13:09;;;;;;;;;;;11.80;99.90;;;;;;5072349;28;19924;-33
2023/10/31 09:15:38;;;;;;;;;;;11.90;99.90;;;;;;5065530;28;20023;-33
2023/10/31 09:18:06;;;;;;;;;;;11.90;99.90;;;;;;5086882;28;19932;-33
2023/10/31 09:20:33;;;;;;;;;;;12.00;99.90;;;;;;5073483;28;19924;-32
2023/10/31 09:22:59;;;;;;;;;;;12.00;99.90;;;;;;5073061;28;19932;-31
2023/10/31 09:25:26;;;;;;;;;;;12.10;99.90;;;;;;5091099;28;19928;-32
2023/10/31 09:27:53;;;;;;;;;;;12.10;99.90;;;;;;5063332;28;19928;-33
2023/10/31 09:30:19;;;;;;;;;;;12.10;99.90;;;;;;5072714;28;19928;-33
2023/10/31 09:32:47;;;;;;;;;;;12.10;99.90;;;;;;5091078;28;19963;-35
2023/10/31 09:35:14;;;;;;;;;;;12.20;99.90;;;;;;5071622;28;19924;-34
2023/10/31 09:37:42;;;;;;;;;;;12.20;99.90;;;;;;5083404;28;19924;-34
2023/10/31 09:40:10;;;;;;;;;;;12.20;99.90;;;;;;5072237;28;19928;-34
2023/10/31 09:42:36;;;;;;;;;;;12.20;99.90;;;;;;5074243;28;19928;-35
2023/10/31 09:45:03;;;;;;;;;;;12.20;99.90;;;;;;5092139;28;19955;-34
2023/10/31 09:47:30;;;;;;;;;;;12.20;99.90;;;;;;5073729;28;20050;-33
2023/10/31 09:49:58;;;;;;;;;;;12.20;99.90;;;;;;5089552;28;19970;-33
2023/10/31 09:52:24;;;;;;;;;;;12.20;99.90;;;;;;5088902;28;19924;-33
2023/10/31 09:54:51;;;;;;;;;;;12.10;99.90;;;;;;5073674;28;19963;-33
2023/10/31 09:57:18;;;;;;;;;;;12.10;99.90;;;;;;5091322;28;20025;-33
2023/10/31 09:59:44;;;;;;;;;;;12.00;99.90;;;;;;5073061;28;20341;-33
2023/10/31 10:02:11;;;;;;;;;;;12.00;99.90;;;;;;5070679;28;20433;-33
2023/10/31 10:04:38;;;;;;;;;;;12.00;99.90;;;;;;5071844;28;19925;-32
2023/10/31 10:07:06;;;;;;;;;;;11.90;99.90;;;;;;5091363;28;19979;-33
2023/10/31 10:09:32;;;;;;;;;;;11.90;99.90;;;;;;5073416;28;19928;-33
2023/10/31 10:11:59;;;;;;;;;;;11.90;99.90;;;;;;5071050;28;19931;-34
2023/10/31 10:14:26;;;;;;;;;;;11.90;99.90;;;;;;5091558;28;19928;-33
2023/10/31 10:16:53;;;;;;;;;;;11.90;99.90;;;;;;5091329;28;19928;-33
2023/10/31 10:19:20;;;;;;;;;;;12.00;99.90;;;;;;5091170;28;19932;-33
2023/10/31 10:21:47;;;;;;;;;;;12.00;99.90;;;;;;5070280;28;19974;-34
2023/10/31 10:24:15;;;;;;;;;;;12.00;99.90;;;;;;5073203;28;19981;-33
2023/10/31 10:26:42;;;;;;;;;;;12.00;99.90;;;;;;5091406;28;19978;-33
2023/10/31 10:29:08;;;;;;;;;;;11.90;99.90;;;;;;5073507;28;19924;-33
2023/10/31 10:31:35;;;;;;;;;;;12.00;99.90;;;;;;5089552;28;19955;-32
2023/10/31 10:34:02;;;;;;;;;;;11.90;99.90;;;;;;5087342;28;20527;-32
2023/10/31 10:36:29;;;;;;;;;;;11.90;99.90;;;;;;5089772;28;20342;-32
2023/10/31 10:38:57;;;;;;;;;;;11.90;99.90;;;;;;5090882;28;19924;-33
2023/10/31 10:41:25;;;;;;;;;;;11.90;99.90;;;;;;5072333;28;19931;-32
2023/10/31 10:43:51;;;;;;;;;;;12.00;99.90;;;;;;5089729;28;20372;-31
2023/10/31 10:46:18;;;;;;;;;;;12.00;99.90;;;;;;5090247;28;19970;-31
2023/10/31 10:48:45;;;;;;;;;;;11.90;99.90;;;;;;5073056;28;19967;-33
2023/10/31 10:51:16;;;;;;;;;;;11.90;99.90;;;;;;5073065;28;19928;-32
2023/10/31 10:53:43;;;;;;;;;;;12.00;99.90;;;;;;5089334;28;19928;-33
2023/10/31 10:56:13;;;;;;;;;;;12.00;99.90;;;;;;5073198;28;19935;-32
2023/10/31 10:58:42;;;;;;;;;;;12.10;99.90;;;;;;5091045;28;19932;-31
2023/10/31 11:01:09;;;;;;;;;;;12.10;99.90;;;;;;5090940;28;19985;-32
2023/10/31 11:03:35;;;;;;;;;;;12.20;99.90;;;;;;5087776;28;19978;-33
2023/10/31 11:06:02;;;;;;;;;;;12.20;99.90;;;;;;5072358;28;20009;-32
2023/10/31 11:08:28;;;;;;;;;;;12.20;99.90;;;;;;5073538;28;19978;-33
2023/10/31 11:10:55;;;;;;;;;;;12.30;99.90;;;;;;5091241;28;19928;-32
2023/10/31 11:13:22;;;;;;;;;;;12.20;99.90;;;;;;5090928;28;20399;-32
2023/10/31 11:15:52;;;;;;;;;;;12.30;99.90;;;;;;5070520;28;19928;-32
2023/10/31 11:18:19;;;;;;;;;;;12.30;99.90;;;;;;5093062;28;19924;-33
2023/10/31 11:20:45;;;;;;;;;;;12.40;99.90;;;;;;5094639;28;19994;-32
2023/10/31 11:23:12;;;;;;;;;;;12.40;99.90;;;;;;5076602;28;20330;-32
2023/10/31 11:25:39;;;;;;;;;;;12.40;99.90;;;;;;5094397;28;20445;-34
2023/10/31 11:28:12;;;;;;;;;;;12.40;99.90;;;;;;5070152;28;19924;-32
2023/10/31 11:30:39;;;;;;;;;;;12.50;99.90;;;;;;5076585;28;19925;-31
2023/10/31 11:33:07;;;;;;;;;;;12.40;99.90;;;;;;5093798;28;19928;-33
2023/10/31 11:35:34;;;;;;;;;;;12.50;99.90;;;;;;5076288;28;19924;-32
2023/10/31 11:38:09;;;;;;;;;;;12.50;99.90;;;;;;5075528;28;19946;-35
2023/10/31 11:40:35;;;;;;;;;;;12.50;99.90;;;;;;5056257;28;19924;-34
2023/10/31 11:43:03;;;;;;;;;;;12.50;99.90;;;;;;5085238;28;19977;-32
2023/10/31 11:45:30;;;;;;;;;;;12.50;99.90;;;;;;5075568;28;20294;-32
2023/10/31 11:47:56;;;;;;;;;;;12.50;99.90;;;;;;5092658;28;19931;-32
2023/10/31 11:50:24;;;;;;;;;;;12.50;99.90;;;;;;5076290;28;20315;-33
2023/10/31 11:53:06;;;;;;;;;;;12.50;99.90;;;;;;5094029;28;19928;-31
2023/10/31 11:55:36;;;;;;;;;;;12.40;99.90;;;;;;5074297;28;20364;-33
2023/10/31 11:58:19;;;;;;;;;;;12.40;99.90;;;;;;5075813;28;19931;-33
2023/10/31 12:00:46;;;;;;;;;;;12.40;99.90;;;;;;5073422;28;20009;-34
2023/10/31 12:03:13;;;;;;;;;;;12.30;99.90;;;;;;5075691;28;20394;-32
2023/10/31 12:05:40;;;;;;;;;;;12.30;99.90;;;;;;5091076;28;19924;-33
2023/10/31 12:08:07;;;;;;;;;;;12.30;99.90;;;;;;5075659;28;19978;-33
2023/10/31 12:10:34;;;;;;;;;;;12.30;99.90;;;;;;5075300;28;19924;-31
2023/10/31 12:13:00;;;;;;;;;;;12.30;99.90;;;;;;5093629;28;19970;-33
2023/10/31 12:15:27;;;;;;;;;;;12.30;99.90;;;;;;5089936;28;19935;-32
2023/10/31 12:17:58;;;;;;;;;;;12.30;99.90;;;;;;5093627;28;20359;-32
2023/10/31 12:20:25;;;;;;;;;;;12.30;99.90;;;;;;5064926;28;19963;-32
2023/10/31 12:23:03;;;;;;;;;;;12.40;99.90;;;;;;5075450;28;19934;-32
2023/10/31 12:25:32;;;;;;;;;;;12.40;99.90;;;;;;5091574;28;19967;-32
2023/10/31 12:27:59;;;;;;;;;;;12.40;99.90;;;;;;5074838;28;20398;-32
2023/10/31 12:30:26;;;;;;;;;;;12.50;99.90;;;;;;5090358;28;19924;-32
2023/10/31 12:32:54;;;;;;;;;;;12.40;99.90;;;;;;5093106;28;19923;-33
2023/10/31 12:35:21;;;;;;;;;;;12.50;99.90;;;;;;5091602;28;19981;-31
2023/10/31 12:37:48;;;;;;;;;;;12.50;99.90;;;;;;5092366;28;19924;-33
2023/10/31 12:40:17;;;;;;;;;;;12.50;99.90;;;;;;5074344;28;19924;-33
2023/10/31 12:42:44;;;;;;;;;;;12.50;99.90;;;;;;5084070;28;20622;-32
2023/10/31 12:45:10;;;;;;;;;;;12.70;99.90;;;;;;5091296;28;20375;-32
2023/10/31 12:47:37;;;;;;;;;;;12.80;99.90;;;;;;5072433;28;19924;-32
2023/10/31 12:50:08;;;;;;;;;;;12.80;99.90;;;;;;5092398;28;19924;-32
2023/10/31 12:52:50;;;;;;;;;;;12.80;99.90;;;;;;5073468;28;19931;-32
2023/10/31 12:55:19;;;;;;;;;;;12.80;99.90;;;;;;5091418;28;19977;-32
2023/10/31 12:57:46;;;;;;;;;;;12.70;99.90;;;;;;5073834;28;19986;-32
2023/10/31 13:00:13;;;;;;;;;;;12.70;99.90;;;;;;5091736;28;20364;-32
2023/10/31 13:02:40;;;;;;;;;;;12.70;99.90;;;;;;5073689;28;19936;-32
2023/10/31 13:05:12;;;;;;;;;;;12.70;99.90;;;;;;5091597;28;20375;-33
2023/10/31 13:07:38;;;;;;;;;;;12.60;99.90;;;;;;5073743;28;19977;-33
2023/10/31 13:10:05;;;;;;;;;;;12.60;99.90;;;;;;5091265;28;20345;-32
2023/10/31 13:12:33;;;;;;;;;;;12.60;99.90;;;;;;5073860;28;19928;-32
2023/10/31 13:15:00;;;;;;;;;;;12.60;99.90;;;;;;5091703;28;19925;-33
2023/10/31 13:17:27;;;;;;;;;;;12.70;99.90;;;;;;5092005;28;19924;-33
2023/10/31 13:19:54;;;;;;;;;;;12.90;99.90;;;;;;5072250;28;19973;-34
2023/10/31 13:22:20;;;;;;;;;;;13.00;99.90;;;;;;5072950;28;19924;-33
2023/10/31 13:24:47;;;;;;;;;;;13.10;99.90;;;;;;5090117;28;19928;-34
2023/10/31 13:27:16;;;;;;;;;;;13.10;99.90;;;;;;5069916;28;19924;-33
2023/10/31 13:29:45;;;;;;;;;;;13.10;99.90;;;;;;5087060;28;20335;-34
2023/10/31 13:32:12;;;;;;;;;;;13.10;99.90;;;;;;5089429;28;19971;-34
2023/10/31 13:34:39;;;;;;;;;;;13.10;99.90;;;;;;5075692;28;19924;-33
2023/10/31 13:37:06;;;;;;;;;;;13.10;99.90;;;;;;5054091;28;19925;-34
2023/10/31 13:39:33;;;;;;;;;;;13.10;99.90;;;;;;5070378;28;19925;-32
2023/10/31 13:41:59;;;;;;;;;;;13.10;99.90;;;;;;5061149;28;19974;-32
2023/10/31 13:44:26;;;;;;;;;;;13.10;99.90;;;;;;5050647;28;19970;-32
2023/10/31 13:46:54;;;;;;;;;;;13.10;99.90;;;;;;5057228;28;19933;-33
2023/10/31 13:49:21;;;;;;;;;;;13.10;99.90;;;;;;5069496;28;19968;-34
2023/10/31 13:51:47;;;;;;;;;;;13.10;99.90;;;;;;5072608;28;19993;-34
2023/10/31 13:54:14;;;;;;;;;;;13.10;99.90;;;;;;5053748;28;19972;-32
2023/10/31 13:56:40;;;;;;;;;;;13.10;99.90;;;;;;5070776;28;20478;-34
2023/10/31 13:59:07;;;;;;;;;;;13.00;99.90;;;;;;5055153;28;20384;-34
2023/10/31 14:01:34;;;;;;;;;;;13.00;99.90;;;;;;5055100;28;20369;-33
2023/10/31 14:04:02;;;;;;;;;;;13.00;99.90;;;;;;5072636;28;19970;-35
2023/10/31 14:06:32;;;;;;;;;;;13.00;99.90;;;;;;5050927;28;19925;-34
2023/10/31 14:08:58;;;;;;;;;;;12.90;99.90;;;;;;5029277;28;19925;-33
2023/10/31 14:11:25;;;;;;;;;;;12.90;99.90;;;;;;5052911;28;19925;-34
2023/10/31 14:13:52;;;;;;;;;;;12.80;99.90;;;;;;5061060;28;20359;-34
2023/10/31 14:16:18;;;;;;;;;;;12.70;99.90;;;;;;5072842;28;20334;-33